createdAt,value
2019-04-28T00:01:46.948Z,2
2019-04-28T00:06:49.063Z,3
2019-04-28T00:11:51.886Z,4
2019-04-28T00:16:54.085Z,3
2019-04-28T00:21:56.621Z,5
2019-04-28T00:26:58.879Z,4
2019-04-28T00:32:01.669Z,3
2019-04-28T00:37:03.805Z,5
2019-04-28T00:42:06.251Z,6
2019-04-28T00:47:08.718Z,4
2019-04-28T00:52:11.255Z,10
2019-04-28T00:57:13.612Z,7
2019-04-28T01:02:16.453Z,9
2019-04-28T01:07:18.696Z,7
2019-04-28T01:12:21.417Z,7
2019-04-28T01:17:23.482Z,8
2019-04-28T01:22:25.952Z,7
2019-04-28T01:27:30.161Z,8
2019-04-28T01:32:31.183Z,8
2019-04-28T01:37:33.276Z,7
2019-04-28T01:42:35.743Z,7
2019-04-28T01:47:38.213Z,8
2019-04-28T01:52:40.703Z,5
2019-04-28T01:57:43.161Z,6
2019-04-28T02:02:45.943Z,8
2019-04-28T02:07:48.112Z,7
2019-04-28T02:12:50.674Z,11
2019-04-28T02:17:52.958Z,8
2019-04-28T02:22:55.444Z,7
2019-04-28T02:27:59.481Z,9
2019-04-28T02:33:01.537Z,8
2019-04-28T02:38:02.781Z,8
2019-04-28T02:43:05.400Z,6
2019-04-28T02:48:07.739Z,7
2019-04-28T02:53:10.904Z,7
2019-04-28T02:58:13.406Z,6
2019-04-28T03:03:15.684Z,8
2019-04-28T03:08:17.556Z,7
2019-04-28T03:13:20.819Z,7
2019-04-28T03:18:22.510Z,6
2019-04-28T03:23:24.955Z,6
2019-04-28T03:28:27.541Z,8
2019-04-28T03:33:33.400Z,5
2019-04-28T03:38:32.295Z,5
2019-04-28T03:43:34.884Z,7
2019-04-28T03:48:37.307Z,6
2019-04-28T03:53:40.927Z,6
2019-04-28T03:58:42.339Z,6
2019-04-28T04:03:45.007Z,7
2019-04-28T04:08:47.047Z,6
2019-04-28T04:13:51.347Z,5
2019-04-28T04:18:53.601Z,6
2019-04-28T04:23:54.790Z,5
2019-04-28T04:28:56.946Z,5
2019-04-28T04:34:00.675Z,6
2019-04-28T04:39:02.195Z,5
2019-04-28T04:44:04.246Z,6
2019-04-28T04:49:06.772Z,4
2019-04-28T04:54:10.777Z,4
2019-04-28T04:59:11.672Z,5
2019-04-28T05:04:14.128Z,5
2019-04-28T05:09:16.518Z,6
2019-04-28T05:14:19.807Z,4
2019-04-28T05:19:21.512Z,4
2019-04-28T05:24:23.896Z,4
2019-04-28T05:29:27.806Z,4
2019-04-28T05:34:29.717Z,5
2019-04-28T05:39:31.483Z,5
2019-04-28T05:44:33.820Z,3
2019-04-28T05:49:36.197Z,2
2019-04-28T05:54:40.309Z,2
2019-04-28T06:04:43.943Z,2
2019-04-28T06:09:46.380Z,1
2019-04-28T06:14:50.183Z,2
2019-04-28T06:19:50.928Z,3
2019-04-28T06:24:53.382Z,3
2019-04-28T06:29:55.836Z,3
2019-04-28T06:34:58.399Z,3
2019-04-28T06:40:00.871Z,2
2019-04-28T06:45:03.224Z,6
2019-04-28T06:50:05.857Z,3
2019-04-28T06:55:08.135Z,2
2019-04-28T07:00:10.627Z,4
2019-04-28T07:05:13.397Z,3
2019-04-28T07:10:15.519Z,3
2019-04-28T07:15:17.944Z,2
2019-04-28T07:20:20.443Z,3
2019-04-28T07:25:23.286Z,5
2019-04-28T07:30:25.333Z,3
2019-04-28T07:35:28.241Z,4
2019-04-28T07:40:30.436Z,4
2019-04-28T07:45:32.689Z,5
2019-04-28T07:50:35.264Z,6
2019-04-28T07:55:38.033Z,4
2019-04-28T08:00:40.053Z,8
2019-04-28T08:05:42.879Z,5
2019-04-28T08:10:44.974Z,5
2019-04-28T08:15:47.442Z,7
2019-04-28T08:20:50.130Z,6
2019-04-28T08:25:52.597Z,9
2019-04-28T08:30:54.801Z,9
2019-04-28T08:35:57.625Z,6
2019-04-28T08:40:59.720Z,4
2019-04-28T08:46:02.232Z,5
2019-04-28T08:51:04.640Z,7
2019-04-28T08:56:07.493Z,4
2019-04-28T09:01:09.603Z,8
2019-04-28T09:06:12.438Z,6
2019-04-28T09:11:14.458Z,4
2019-04-28T09:16:17.008Z,4
2019-04-28T09:21:19.412Z,5
2019-04-28T09:26:22.606Z,4
2019-04-28T09:31:24.322Z,5
2019-04-28T09:36:27.088Z,5
2019-04-28T09:41:29.216Z,5
2019-04-28T09:46:31.749Z,3
2019-04-28T09:51:34.200Z,3
2019-04-28T09:56:36.664Z,5
2019-04-28T10:01:39.066Z,3
2019-04-28T10:06:42.134Z,2
2019-04-28T10:11:43.947Z,3
2019-04-28T10:16:46.424Z,2
2019-04-28T10:21:48.908Z,3
2019-04-28T10:26:51.374Z,2
2019-04-28T10:31:53.814Z,2
2019-04-28T10:36:56.595Z,2
2019-04-28T10:41:58.728Z,1
2019-04-28T10:47:01.165Z,2
2019-04-28T10:52:03.711Z,2
2019-04-28T10:57:06.257Z,3
2019-04-28T11:02:08.653Z,2
2019-04-28T11:07:11.839Z,3
2019-04-28T11:12:13.455Z,3
2019-04-28T11:17:15.935Z,2
2019-04-28T11:22:18.448Z,2
2019-04-28T11:27:20.977Z,2
2019-04-28T11:32:23.343Z,3
2019-04-28T11:37:26.090Z,5
2019-04-28T11:42:28.227Z,3
2019-04-28T11:47:30.702Z,5
2019-04-28T11:52:33.202Z,3
2019-04-28T11:57:35.725Z,4
2019-04-28T12:02:38.042Z,3
2019-04-28T12:07:40.879Z,4
2019-04-28T12:12:42.954Z,3
2019-04-28T12:17:45.479Z,3
2019-04-28T12:22:48.091Z,3
2019-04-28T12:27:50.596Z,3
2019-04-28T12:32:53.026Z,4
2019-04-28T12:37:55.647Z,3
2019-04-28T12:42:57.716Z,8
2019-04-28T12:48:00.182Z,3
2019-04-28T12:53:02.758Z,3
2019-04-28T12:58:05.171Z,3
2019-04-28T13:03:07.567Z,3
2019-04-28T13:08:10.391Z,4
2019-04-28T13:13:12.473Z,4
2019-04-28T13:18:14.921Z,3
2019-04-28T13:23:17.480Z,4
2019-04-28T13:28:19.855Z,3
2019-04-28T13:38:25.096Z,3
2019-04-28T13:43:27.235Z,4
2019-04-28T13:48:29.942Z,4
2019-04-28T13:53:32.198Z,3
2019-04-28T13:58:34.565Z,3
2019-04-28T14:03:37.016Z,5
2019-04-28T14:08:39.837Z,5
2019-04-28T14:13:41.965Z,3
2019-04-28T14:18:44.416Z,5
2019-04-28T14:23:46.931Z,5
2019-04-28T14:28:49.306Z,7
2019-04-28T14:33:51.838Z,5
2019-04-28T14:38:54.585Z,4
2019-04-28T14:43:56.851Z,4
2019-04-28T14:48:59.178Z,4
2019-04-28T14:54:01.789Z,4
2019-04-28T14:59:04.375Z,5
2019-04-28T15:04:06.585Z,4
2019-04-28T15:09:09.427Z,5
2019-04-28T15:14:11.500Z,5
2019-04-28T15:19:13.943Z,5
2019-04-28T15:24:16.450Z,5
2019-04-28T15:29:18.815Z,6
2019-04-28T15:34:21.306Z,7
2019-04-28T15:39:23.797Z,5
2019-04-28T15:44:26.177Z,6
2019-04-28T15:49:28.736Z,7
2019-04-28T15:54:31.306Z,6
2019-04-28T15:59:33.670Z,5
2019-04-28T16:04:36.015Z,5
2019-04-28T16:09:41.015Z,10
2019-04-28T16:14:41.062Z,7
2019-04-28T16:19:43.399Z,6
2019-04-28T16:24:45.964Z,7
2019-04-28T16:29:48.308Z,8
2019-04-28T16:34:50.766Z,6
2019-04-28T16:39:53.234Z,7
2019-04-28T16:44:55.670Z,7
2019-04-28T16:49:58.135Z,7
2019-04-28T16:55:00.730Z,7
2019-04-28T17:00:03.112Z,7
2019-04-28T17:05:05.562Z,6
2019-04-28T17:10:08.336Z,8
2019-04-28T17:15:10.433Z,7
2019-04-28T17:20:12.902Z,8
2019-04-28T17:25:15.445Z,7
2019-04-28T17:30:17.983Z,8
2019-04-28T17:35:20.271Z,8
2019-04-28T17:40:23.124Z,10
2019-04-28T17:45:25.289Z,10
2019-04-28T17:50:27.651Z,8
2019-04-28T17:55:30.352Z,9
2019-04-28T18:00:32.546Z,8
2019-04-28T18:05:35.019Z,8
2019-04-28T18:10:37.831Z,9
2019-04-28T18:15:39.924Z,7
2019-04-28T18:20:42.473Z,7
2019-04-28T18:25:45.016Z,8
2019-04-28T18:30:47.484Z,9
2019-04-28T18:35:49.751Z,8
2019-04-28T18:40:53.244Z,13
2019-04-28T18:45:54.687Z,10
2019-04-28T18:50:57.245Z,13
2019-04-28T18:55:59.668Z,8
2019-04-28T19:01:02.042Z,11
2019-04-28T19:06:04.500Z,9
2019-04-28T19:11:07.355Z,9
2019-04-28T19:16:09.464Z,10
2019-04-28T19:21:11.872Z,14
2019-04-28T19:26:14.479Z,10
2019-04-28T19:31:16.853Z,10
2019-04-28T19:36:19.409Z,9
2019-04-28T19:41:22.058Z,11
2019-04-28T19:46:24.224Z,10
2019-04-28T19:51:31.825Z,10
2019-04-28T19:56:29.145Z,10
2019-04-28T20:01:31.520Z,15
2019-04-28T20:06:34.040Z,12
2019-04-28T20:11:36.877Z,15
2019-04-28T20:16:38.922Z,13
2019-04-28T20:21:41.658Z,12
2019-04-28T20:26:43.908Z,12
2019-04-28T20:31:46.428Z,15
2019-04-28T20:36:48.791Z,14
2019-04-28T20:41:51.584Z,12
2019-04-28T20:46:53.795Z,12
2019-04-28T20:51:56.094Z,11
2019-04-28T20:56:58.833Z,16
2019-04-28T21:02:01.013Z,15
2019-04-28T21:07:03.560Z,13
2019-04-28T21:12:06.283Z,15
2019-04-28T21:17:08.376Z,12
2019-04-28T21:22:10.906Z,15
2019-04-28T21:27:13.378Z,14
2019-04-28T21:32:15.755Z,12
2019-04-28T21:37:18.652Z,12
2019-04-28T21:42:21.021Z,13
2019-04-28T21:47:23.122Z,17
2019-04-28T21:52:25.610Z,19
2019-04-28T21:57:28.174Z,11
2019-04-28T22:02:30.494Z,15
2019-04-28T22:07:32.983Z,17
2019-04-28T22:12:35.538Z,14
2019-04-28T22:17:37.881Z,15
2019-04-28T22:22:40.379Z,14
2019-04-28T22:27:42.989Z,19
2019-04-28T22:32:45.327Z,12
2019-04-28T22:37:47.707Z,13
2019-04-28T22:42:50.550Z,10
2019-04-28T22:47:52.624Z,13
2019-04-28T22:52:55.155Z,11
2019-04-28T22:57:57.585Z,14
2019-04-28T23:02:59.967Z,20
2019-04-28T23:08:02.463Z,12
2019-04-28T23:13:05.212Z,14
2019-04-28T23:18:07.354Z,16
2019-04-28T23:23:09.805Z,16
2019-04-28T23:28:12.348Z,14
2019-04-28T23:33:14.731Z,10
2019-04-28T23:38:17.201Z,18
2019-04-28T23:43:20.058Z,14
2019-04-28T23:48:22.157Z,18
2019-04-28T23:53:24.541Z,16
2019-04-28T23:58:27.008Z,15
